createdAt,value
2023-05-10T00:02:11.882Z,14.06
2023-05-10T00:04:40.134Z,14.02
2023-05-10T00:07:09.505Z,13.75
2023-05-10T00:09:37.717Z,13.90
2023-05-10T00:12:06.643Z,13.77
2023-05-10T00:14:34.857Z,13.87
2023-05-10T00:17:03.240Z,13.76
2023-05-10T00:19:33.104Z,13.76
2023-05-10T00:22:01.308Z,13.79
2023-05-10T00:24:29.642Z,13.75
2023-05-10T00:26:57.850Z,13.80
2023-05-10T00:29:26.210Z,13.47
2023-05-10T00:31:54.883Z,13.40
2023-05-10T00:34:23.121Z,13.07
2023-05-10T00:36:52.674Z,13.08
2023-05-10T00:39:20.921Z,13.00
2023-05-10T00:41:49.147Z,13.03
2023-05-10T00:44:19.431Z,13.09
2023-05-10T00:46:47.886Z,13.12
2023-05-10T00:49:16.232Z,12.94
2023-05-10T00:51:45.568Z,13.07
2023-05-10T00:54:17.318Z,13.03
2023-05-10T00:56:49.583Z,13.07
2023-05-10T00:59:18.760Z,13.08
2023-05-10T01:01:48.044Z,13.04
2023-05-10T01:04:17.345Z,13.14
2023-05-10T01:06:45.876Z,13.15
2023-05-10T01:09:15.529Z,13.13
2023-05-10T01:11:43.981Z,13.11
2023-05-10T01:14:12.744Z,13.04
2023-05-10T01:16:46.431Z,12.95
2023-05-10T01:19:21.176Z,13.01
2023-05-10T01:22:26.798Z,13.07
2023-05-10T01:25:24.487Z,13.05
2023-05-10T01:28:20.017Z,12.93
2023-05-10T01:31:14.452Z,13.00
2023-05-10T01:33:53.360Z,13.01
2023-05-10T01:36:29.278Z,13.05
2023-05-10T01:39:06.354Z,12.96
2023-05-10T01:41:43.985Z,12.83
2023-05-10T01:44:20.634Z,12.93
2023-05-10T01:46:56.663Z,12.90
2023-05-10T01:49:31.709Z,12.83
2023-05-10T01:52:08.695Z,12.79
2023-05-10T01:54:40.733Z,12.85
2023-05-10T01:57:13.205Z,12.73
2023-05-10T01:59:45.325Z,12.71
2023-05-10T02:02:15.661Z,12.69
2023-05-10T02:04:47.306Z,12.68
2023-05-10T02:07:17.512Z,12.34
2023-05-10T02:09:49.042Z,12.11
2023-05-10T02:12:18.419Z,12.46
2023-05-10T02:14:47.410Z,12.46
2023-05-10T02:17:16.551Z,12.54
2023-05-10T02:19:49.428Z,12.44
2023-05-10T02:22:42.990Z,12.34
2023-05-10T02:25:15.386Z,12.43
2023-05-10T02:27:45.383Z,12.38
2023-05-10T02:30:15.225Z,12.33
2023-05-10T02:32:46.536Z,11.61
2023-05-10T02:35:17.231Z,12.34
2023-05-10T02:37:47.195Z,12.52
2023-05-10T02:40:17.655Z,12.39
2023-05-10T02:42:48.140Z,12.29
2023-05-10T02:45:22.062Z,12.32
2023-05-10T02:47:50.760Z,12.41
2023-05-10T02:50:21.379Z,12.33
2023-05-10T02:52:53.527Z,12.28
2023-05-10T02:55:24.783Z,12.32
2023-05-10T02:57:59.532Z,12.23
2023-05-10T03:00:28.107Z,12.29
2023-05-10T03:02:56.739Z,12.34
2023-05-10T03:05:26.753Z,12.29
2023-05-10T03:07:55.810Z,12.33
2023-05-10T03:10:29.227Z,12.39
2023-05-10T03:13:10.075Z,12.18
2023-05-10T03:15:50.660Z,12.12
2023-05-10T03:18:24.451Z,12.16
2023-05-10T03:21:03.534Z,12.10
2023-05-10T03:23:38.159Z,12.06
2023-05-10T03:26:08.216Z,11.91
2023-05-10T03:28:37.422Z,11.84
2023-05-10T03:31:07.961Z,11.72
2023-05-10T03:33:36.591Z,11.75
2023-05-10T03:36:07.092Z,11.65
2023-05-10T03:38:35.356Z,11.46
2023-05-10T03:41:03.623Z,11.57
2023-05-10T03:43:31.828Z,11.70
2023-05-10T03:46:00.309Z,11.74
2023-05-10T03:48:28.611Z,11.56
2023-05-10T03:50:57.027Z,11.48
2023-05-10T03:53:27.867Z,11.36
2023-05-10T03:55:56.282Z,11.47
2023-05-10T03:58:24.541Z,11.52
2023-05-10T04:00:53.591Z,11.39
2023-05-10T04:03:22.708Z,11.41
2023-05-10T04:05:53.482Z,11.41
2023-05-10T04:08:25.432Z,11.32
2023-05-10T04:10:55.499Z,11.41
2023-05-10T04:13:24.056Z,11.41
2023-05-10T04:15:59.612Z,11.39
2023-05-10T04:18:28.531Z,11.48
2023-05-10T04:20:56.787Z,11.45
2023-05-10T04:23:26.391Z,11.41
2023-05-10T04:26:03.069Z,11.27
2023-05-10T04:28:32.277Z,11.17
2023-05-10T04:31:05.654Z,11.32
2023-05-10T04:33:35.603Z,11.40
2023-05-10T04:36:05.438Z,10.72
2023-05-10T04:38:34.758Z,11.38
2023-05-10T04:41:14.107Z,11.33
2023-05-10T04:43:43.228Z,11.42
2023-05-10T04:46:15.632Z,11.38
2023-05-10T04:48:45.795Z,11.27
2023-05-10T04:51:15.265Z,11.36
2023-05-10T04:53:51.149Z,11.32
2023-05-10T04:56:28.535Z,11.34
2023-05-10T04:58:58.007Z,11.31
2023-05-10T05:01:27.977Z,11.39
2023-05-10T05:03:57.658Z,11.34
2023-05-10T05:06:28.440Z,11.31
2023-05-10T05:08:59.176Z,11.47
2023-05-10T05:11:31.372Z,11.46
2023-05-10T05:14:01.512Z,11.42
2023-05-10T05:16:32.617Z,10.80
2023-05-10T05:19:02.648Z,11.58
2023-05-10T05:21:31.033Z,11.61
2023-05-10T05:23:59.406Z,11.58
2023-05-10T05:26:30.146Z,11.52
2023-05-10T05:28:58.594Z,11.45
2023-05-10T05:31:27.045Z,11.33
2023-05-10T05:33:55.487Z,11.44
2023-05-10T05:36:24.227Z,11.42
2023-05-10T05:38:52.512Z,11.54
2023-05-10T05:41:20.959Z,11.45
2023-05-10T05:43:50.928Z,11.35
2023-05-10T05:46:19.432Z,11.36
2023-05-10T05:48:47.741Z,11.52
2023-05-10T05:51:16.173Z,11.51
2023-05-10T05:53:44.418Z,11.63
2023-05-10T05:56:12.725Z,11.71
2023-05-10T05:58:41.146Z,12.28
2023-05-10T06:01:10.820Z,11.74
2023-05-10T06:03:39.672Z,11.70
2023-05-10T06:06:08.140Z,11.58
2023-05-10T06:08:36.759Z,11.65
2023-05-10T06:11:05.385Z,11.74
2023-05-10T06:13:36.156Z,11.53
2023-05-10T06:16:12.229Z,11.54
2023-05-10T06:18:42.577Z,11.53
2023-05-10T06:21:11.102Z,11.75
2023-05-10T06:23:39.681Z,11.63
2023-05-10T06:26:08.092Z,11.65
2023-05-10T06:28:38.930Z,11.75
2023-05-10T06:31:07.984Z,11.77
2023-05-10T06:33:36.643Z,11.77
2023-05-10T06:36:07.069Z,11.71
2023-05-10T06:38:35.383Z,11.76
2023-05-10T06:41:03.704Z,11.76
2023-05-10T06:43:32.030Z,11.76
2023-05-10T06:46:00.397Z,11.86
2023-05-10T06:48:29.119Z,11.77
2023-05-10T06:50:57.403Z,11.81
2023-05-10T06:53:27.692Z,11.88
2023-05-10T06:55:56.033Z,11.97
2023-05-10T06:58:24.350Z,12.10
2023-05-10T07:00:52.777Z,12.11
2023-05-10T07:03:21.261Z,11.95
2023-05-10T07:05:49.581Z,12.01
2023-05-10T07:08:17.910Z,11.91
2023-05-10T07:10:47.573Z,11.94
2023-05-10T07:13:16.055Z,12.07
2023-05-10T07:15:44.380Z,12.24
2023-05-10T07:18:12.707Z,12.21
2023-05-10T07:20:41.035Z,12.34
2023-05-10T07:23:09.315Z,12.48
2023-05-10T07:25:37.689Z,12.52
2023-05-10T07:28:07.781Z,12.47
2023-05-10T07:30:36.129Z,12.66
2023-05-10T07:33:04.796Z,12.38
2023-05-10T07:35:33.498Z,12.54
2023-05-10T07:38:02.235Z,11.72
2023-05-10T07:40:31.105Z,12.62
2023-05-10T07:43:00.921Z,12.49
2023-05-10T07:45:30.741Z,12.61
2023-05-10T07:47:59.404Z,12.78
2023-05-10T07:50:27.971Z,12.75
2023-05-10T07:52:56.230Z,12.92
2023-05-10T07:55:24.511Z,12.74
2023-05-10T07:57:52.774Z,12.71
2023-05-10T08:00:22.267Z,12.87
2023-05-10T08:02:52.522Z,12.82
2023-05-10T08:05:22.522Z,13.07
2023-05-10T08:07:50.794Z,13.14
2023-05-10T08:10:19.108Z,13.11
2023-05-10T08:12:47.378Z,13.05
2023-05-10T08:15:16.026Z,13.22
2023-05-10T08:17:45.095Z,13.24
2023-05-10T08:20:17.700Z,13.19
2023-05-10T08:22:46.905Z,13.03
2023-05-10T08:25:17.559Z,13.24
2023-05-10T08:27:46.053Z,13.29
2023-05-10T08:30:15.136Z,13.38
2023-05-10T08:32:43.424Z,13.63
2023-05-10T08:35:11.713Z,13.65
2023-05-10T08:37:41.422Z,13.89
2023-05-10T08:40:13.530Z,13.92
2023-05-10T08:42:45.824Z,13.81
2023-05-10T08:45:14.562Z,13.76
2023-05-10T08:47:43.299Z,13.65
2023-05-10T08:50:12.849Z,13.75
2023-05-10T08:52:43.592Z,13.88
2023-05-10T08:55:12.882Z,13.72
2023-05-10T08:57:46.931Z,13.67
2023-05-10T09:00:17.154Z,13.64
2023-05-10T09:02:46.871Z,13.63
2023-05-10T09:05:17.223Z,13.47
2023-05-10T09:07:47.138Z,13.24
2023-05-10T09:10:17.007Z,13.14
2023-05-10T09:12:47.276Z,13.13
2023-05-10T09:15:20.285Z,12.98
2023-05-10T09:17:49.453Z,13.00
2023-05-10T09:20:18.412Z,13.16
2023-05-10T09:22:48.414Z,13.23
2023-05-10T09:25:18.546Z,13.39
2023-05-10T09:27:50.419Z,13.16
2023-05-10T09:30:20.508Z,13.27
2023-05-10T09:32:51.156Z,13.37
2023-05-10T09:35:21.451Z,13.36
2023-05-10T09:37:52.852Z,13.36
2023-05-10T09:40:23.551Z,13.51
2023-05-10T09:42:58.474Z,13.49
2023-05-10T09:45:29.102Z,13.55
2023-05-10T09:47:58.417Z,13.68
2023-05-10T09:50:28.067Z,13.81
2023-05-10T09:53:00.005Z,13.70
2023-05-10T09:55:41.361Z,13.79
2023-05-10T09:58:11.748Z,14.14
2023-05-10T10:00:42.498Z,14.04
2023-05-10T10:03:16.283Z,14.08
2023-05-10T10:06:26.493Z,14.18
2023-05-10T10:08:59.683Z,14.20
2023-05-10T10:11:28.811Z,14.29
2023-05-10T10:13:57.360Z,14.36
2023-05-10T10:16:27.036Z,14.48
2023-05-10T10:18:56.523Z,14.26
2023-05-10T10:21:25.418Z,14.35
2023-05-10T10:23:54.624Z,14.36
2023-05-10T10:26:25.050Z,14.49
2023-05-10T10:29:07.923Z,14.20
2023-05-10T10:31:43.337Z,14.25
2023-05-10T10:34:19.345Z,14.26
2023-05-10T10:36:49.063Z,14.14
2023-05-10T10:39:18.090Z,14.31
2023-05-10T10:41:54.588Z,14.29
2023-05-10T10:44:40.254Z,14.23
2023-05-10T10:47:25.638Z,14.14
2023-05-10T10:50:05.598Z,13.82
2023-05-10T10:52:35.790Z,13.94
2023-05-10T10:55:07.482Z,13.92
2023-05-10T10:57:48.148Z,13.92
2023-05-10T11:00:28.536Z,13.96
2023-05-10T11:03:00.484Z,14.22
2023-05-10T11:05:42.772Z,13.98
2023-05-10T11:08:18.171Z,13.91
2023-05-10T11:10:58.804Z,14.13
2023-05-10T11:13:33.834Z,14.17
2023-05-10T11:16:20.533Z,14.01
2023-05-10T11:19:13.155Z,13.57
2023-05-10T11:21:49.344Z,14.46
2023-05-10T11:24:20.100Z,14.46
2023-05-10T11:26:52.026Z,14.17
2023-05-10T11:29:22.251Z,14.33
2023-05-10T11:31:51.856Z,14.31
2023-05-10T11:34:27.822Z,14.35
2023-05-10T11:36:57.687Z,14.56
2023-05-10T11:39:29.662Z,14.75
2023-05-10T11:41:58.873Z,14.87
2023-05-10T11:44:33.640Z,14.70
2023-05-10T11:47:04.510Z,14.53
2023-05-10T11:49:40.606Z,14.67
2023-05-10T11:52:19.309Z,14.53
2023-05-10T11:54:54.720Z,14.57
2023-05-10T11:57:31.452Z,14.70
2023-05-10T12:00:05.080Z,14.62
2023-05-10T12:02:42.103Z,14.77
2023-05-10T12:05:23.452Z,14.88
2023-05-10T12:07:54.354Z,14.70
2023-05-10T12:10:33.377Z,14.56
2023-05-10T12:13:05.358Z,14.49
2023-05-10T12:15:38.708Z,14.66
2023-05-10T12:18:13.103Z,14.39
2023-05-10T12:20:44.748Z,14.14
2023-05-10T12:23:22.000Z,14.07
2023-05-10T12:25:57.103Z,14.15
2023-05-10T12:28:40.682Z,14.13
2023-05-10T12:31:16.563Z,14.34
2023-05-10T12:33:51.562Z,14.25
2023-05-10T12:36:29.787Z,14.23
2023-05-10T12:39:09.435Z,14.30
2023-05-10T12:41:43.691Z,14.45
2023-05-10T12:44:19.213Z,14.46
2023-05-10T12:46:56.899Z,14.47
2023-05-10T12:49:30.877Z,14.44
2023-05-10T12:52:03.967Z,14.42
2023-05-10T12:54:39.439Z,14.62
2023-05-10T12:57:13.970Z,14.69
2023-05-10T12:59:45.386Z,14.74
2023-05-10T13:02:26.164Z,14.81
2023-05-10T13:05:05.916Z,14.96
2023-05-10T13:07:42.705Z,15.10
2023-05-10T13:10:17.213Z,14.96
2023-05-10T13:12:50.135Z,14.87
2023-05-10T13:15:28.732Z,14.61
2023-05-10T13:18:08.205Z,14.52
2023-05-10T13:20:44.723Z,14.40
2023-05-10T13:23:20.190Z,14.64
2023-05-10T13:25:54.407Z,14.69
2023-05-10T13:28:27.196Z,14.90
2023-05-10T13:30:58.177Z,14.74
2023-05-10T13:33:31.216Z,14.36
2023-05-10T13:36:03.386Z,14.42
2023-05-10T13:38:37.488Z,14.46
2023-05-10T13:41:12.207Z,14.42
2023-05-10T13:43:52.047Z,14.27
2023-05-10T13:46:33.110Z,14.33
2023-05-10T13:49:19.008Z,14.46
2023-05-10T13:51:52.445Z,14.49
2023-05-10T13:54:37.879Z,14.14
2023-05-10T13:57:18.260Z,14.24
2023-05-10T14:00:06.229Z,14.29
2023-05-10T14:02:44.101Z,14.17
2023-05-10T14:05:26.222Z,14.06
2023-05-10T14:08:11.891Z,13.47
2023-05-10T14:10:47.649Z,13.79
2023-05-10T14:13:25.998Z,14.00
2023-05-10T14:16:02.374Z,14.00
2023-05-10T14:18:43.151Z,13.94
2023-05-10T14:21:24.622Z,13.50
2023-05-10T14:24:18.018Z,14.15
2023-05-10T14:27:12.921Z,13.83
2023-05-10T14:29:57.229Z,13.92
2023-05-10T14:32:29.973Z,13.90
2023-05-10T14:35:10.735Z,13.92
2023-05-10T14:37:58.791Z,13.89
2023-05-10T14:40:33.557Z,13.67
2023-05-10T14:43:11.462Z,13.83
2023-05-10T14:45:45.400Z,13.87
2023-05-10T14:48:19.279Z,13.97
2023-05-10T14:50:51.444Z,13.69
2023-05-10T14:53:31.106Z,13.81
2023-05-10T14:56:08.490Z,13.82
2023-05-10T14:58:50.483Z,13.66
2023-05-10T15:01:37.294Z,13.77
2023-05-10T15:04:17.838Z,13.77
2023-05-10T15:06:52.567Z,13.85
2023-05-10T15:09:32.026Z,13.89
2023-05-10T15:12:02.093Z,14.01
2023-05-10T15:14:41.789Z,14.10
2023-05-10T15:17:15.066Z,13.99
2023-05-10T15:19:46.320Z,13.92
2023-05-10T15:22:19.495Z,14.07
2023-05-10T15:24:55.461Z,13.96
2023-05-10T15:27:31.225Z,13.99
2023-05-10T15:30:07.889Z,14.08
2023-05-10T15:32:46.073Z,13.98
2023-05-10T15:35:21.716Z,14.16
2023-05-10T15:37:57.604Z,14.18
2023-05-10T15:40:33.161Z,14.30
2023-05-10T15:43:11.161Z,14.26
2023-05-10T15:45:45.255Z,14.31
2023-05-10T15:48:23.083Z,14.22
2023-05-10T15:50:57.473Z,14.24
2023-05-10T15:53:42.443Z,14.20
2023-05-10T15:56:29.580Z,14.16
2023-05-10T15:58:59.931Z,14.34
2023-05-10T16:02:24.682Z,14.23
2023-05-10T16:05:01.182Z,14.20
2023-05-10T16:07:59.037Z,14.14
2023-05-10T16:10:37.773Z,14.06
2023-05-10T16:13:22.196Z,14.12
2023-05-10T16:16:14.232Z,14.10
2023-05-10T16:18:56.987Z,14.08
2023-05-10T16:21:36.877Z,14.22
2023-05-10T16:24:18.897Z,14.13
2023-05-10T16:26:59.072Z,14.06
2023-05-10T16:29:49.964Z,14.07
2023-05-10T16:32:33.056Z,14.12
2023-05-10T16:35:05.706Z,14.13
2023-05-10T16:37:47.728Z,13.99
2023-05-10T16:40:22.023Z,13.77
2023-05-10T16:43:22.601Z,13.28
2023-05-10T16:46:19.720Z,13.71
2023-05-10T16:49:00.417Z,13.98
2023-05-10T16:51:43.615Z,13.75
2023-05-10T16:54:22.378Z,13.84
2023-05-10T16:57:03.700Z,13.75
2023-05-10T16:59:39.719Z,13.05
2023-05-10T17:02:28.346Z,13.87
2023-05-10T17:05:01.986Z,13.77
2023-05-10T17:07:41.802Z,13.85
2023-05-10T17:10:17.521Z,13.70
2023-05-10T17:12:57.763Z,13.70
2023-05-10T17:15:34.385Z,13.61
2023-05-10T17:18:17.802Z,13.63
2023-05-10T17:20:50.793Z,13.50
2023-05-10T17:23:22.126Z,13.41
2023-05-10T17:25:58.997Z,13.51
2023-05-10T17:28:31.551Z,13.59
2023-05-10T17:31:03.138Z,13.66
2023-05-10T17:33:36.019Z,13.59
2023-05-10T17:36:05.256Z,13.52
2023-05-10T17:38:33.690Z,13.47
2023-05-10T17:41:02.203Z,13.50
2023-05-10T17:43:36.096Z,13.60
2023-05-10T17:46:04.512Z,13.52
2023-05-10T17:48:36.548Z,13.59
2023-05-10T17:51:05.143Z,13.58
2023-05-10T17:53:33.721Z,13.55
2023-05-10T17:56:02.225Z,13.47
2023-05-10T17:58:30.765Z,13.44
2023-05-10T18:00:59.111Z,12.70
2023-05-10T18:03:28.021Z,12.80
2023-05-10T18:05:58.460Z,13.42
2023-05-10T18:08:27.429Z,13.40
2023-05-10T18:10:55.823Z,13.44
2023-05-10T18:13:24.243Z,13.39
2023-05-10T18:15:53.152Z,13.30
2023-05-10T18:18:21.873Z,13.25
2023-05-10T18:20:56.409Z,13.38
2023-05-10T18:23:26.393Z,13.37
2023-05-10T18:25:54.780Z,13.40
2023-05-10T18:28:24.496Z,13.30
2023-05-10T18:30:52.898Z,13.36
2023-05-10T18:33:21.278Z,13.34
2023-05-10T18:35:49.584Z,13.22
2023-05-10T18:38:18.202Z,13.29
2023-05-10T18:40:49.862Z,13.36
2023-05-10T18:43:18.203Z,13.31
2023-05-10T18:45:46.499Z,13.40
2023-05-10T18:48:14.794Z,13.27
2023-05-10T18:50:43.060Z,13.31
2023-05-10T18:53:11.528Z,13.42
2023-05-10T18:55:39.876Z,13.14
2023-05-10T18:58:09.679Z,13.18
2023-05-10T19:00:38.119Z,13.00
2023-05-10T19:03:06.416Z,13.27
2023-05-10T19:05:34.800Z,13.21
2023-05-10T19:08:03.141Z,13.08
2023-05-10T19:10:31.385Z,12.99
2023-05-10T19:12:59.651Z,13.04
2023-05-10T19:15:29.382Z,13.06
2023-05-10T19:17:59.196Z,12.92
2023-05-10T19:20:28.632Z,13.05
2023-05-10T19:23:09.050Z,13.10
2023-05-10T19:25:39.355Z,13.20
2023-05-10T19:28:08.954Z,13.18
2023-05-10T19:30:39.769Z,13.25
2023-05-10T19:33:09.387Z,13.15
2023-05-10T19:35:37.684Z,13.18
2023-05-10T19:38:06.074Z,13.12
2023-05-10T19:40:34.425Z,13.02
2023-05-10T19:43:02.943Z,12.86
2023-05-10T19:45:31.301Z,12.83
2023-05-10T19:50:54.523Z,12.89
2023-05-10T19:53:22.870Z,12.76
2023-05-10T19:55:51.169Z,12.77
2023-05-10T19:58:19.673Z,12.72
2023-05-10T20:00:48.026Z,12.68
2023-05-10T20:03:17.758Z,12.62
2023-05-10T20:05:51.951Z,12.59
2023-05-10T20:08:20.265Z,12.60
2023-05-10T20:10:48.558Z,12.47
2023-05-10T20:13:16.953Z,12.54
2023-05-10T20:15:45.532Z,12.52
2023-05-10T20:18:14.076Z,12.51
2023-05-10T20:20:44.104Z,12.99
2023-05-10T20:23:12.403Z,12.43
2023-05-10T20:25:40.713Z,12.33
2023-05-10T20:28:10.195Z,12.29
2023-05-10T20:30:38.423Z,12.34
2023-05-10T20:33:06.822Z,12.25
2023-05-10T20:35:35.163Z,12.19
2023-05-10T20:38:04.863Z,12.20
2023-05-10T20:40:33.734Z,12.18
2023-05-10T20:43:02.006Z,12.27
2023-05-10T20:45:30.249Z,12.12
2023-05-10T20:47:59.300Z,12.21
2023-05-10T20:50:27.523Z,12.14
2023-05-10T20:52:55.919Z,12.21
2023-05-10T20:55:25.535Z,12.08
2023-05-10T20:57:53.786Z,12.12
2023-05-10T21:00:22.696Z,12.10
2023-05-10T21:02:51.089Z,12.08
2023-05-10T21:05:19.693Z,12.05
2023-05-10T21:07:48.014Z,12.11
2023-05-10T21:10:16.675Z,11.97
2023-05-10T21:12:46.566Z,12.04
2023-05-10T21:15:14.921Z,11.89
2023-05-10T21:17:43.155Z,12.00
2023-05-10T21:20:13.432Z,12.02
2023-05-10T21:22:41.727Z,11.75
2023-05-10T21:25:10.938Z,11.94
2023-05-10T21:27:39.656Z,12.00
2023-05-10T21:30:11.552Z,11.56
2023-05-10T21:32:39.895Z,11.90
2023-05-10T21:35:09.845Z,11.73
2023-05-10T21:37:40.213Z,11.55
2023-05-10T21:40:10.763Z,11.74
2023-05-10T21:42:38.972Z,11.82
2023-05-10T21:45:09.653Z,11.76
2023-05-10T21:47:37.936Z,11.72
2023-05-10T21:50:09.893Z,11.67
2023-05-10T21:52:38.451Z,11.66
2023-05-10T21:55:08.673Z,11.72
2023-05-10T21:57:37.781Z,11.52
2023-05-10T22:00:10.171Z,11.58
2023-05-10T22:02:40.256Z,11.55
2023-05-10T22:05:09.497Z,11.54
2023-05-10T22:07:37.873Z,11.42
2023-05-10T22:10:07.480Z,11.40
2023-05-10T22:12:35.861Z,11.28
2023-05-10T22:17:38.564Z,11.21
2023-05-10T22:20:09.076Z,11.35
2023-05-10T22:22:37.675Z,11.28
2023-05-10T22:25:07.956Z,11.23
2023-05-10T22:27:36.696Z,11.18
2023-05-10T22:30:06.037Z,10.73
2023-05-10T22:32:36.165Z,11.20
2023-05-10T22:35:04.525Z,11.05
2023-05-10T22:37:32.772Z,10.97
2023-05-10T22:40:01.064Z,11.11
2023-05-10T22:42:29.314Z,11.04
2023-05-10T22:44:58.816Z,11.05
2023-05-10T22:47:27.562Z,10.93
2023-05-10T22:49:58.295Z,10.92
2023-05-10T22:52:26.564Z,10.86
2023-05-10T22:54:54.835Z,10.77
2023-05-10T22:57:23.075Z,10.88
2023-05-10T22:59:51.657Z,10.94
2023-05-10T23:02:19.993Z,10.74
2023-05-10T23:04:49.283Z,10.82
2023-05-10T23:07:18.947Z,10.83
2023-05-10T23:09:47.194Z,10.70
2023-05-10T23:12:15.628Z,10.76
2023-05-10T23:14:46.264Z,10.80
2023-05-10T23:17:14.643Z,10.73
2023-05-10T23:19:42.944Z,10.78
2023-05-10T23:22:11.187Z,10.73
2023-05-10T23:24:40.844Z,10.67
2023-05-10T23:27:09.369Z,10.70
2023-05-10T23:29:37.633Z,10.60
2023-05-10T23:32:06.460Z,10.62
2023-05-10T23:34:34.713Z,10.53
2023-05-10T23:37:03.035Z,10.53
2023-05-10T23:39:31.269Z,10.57
2023-05-10T23:42:01.525Z,10.56
2023-05-10T23:44:29.867Z,10.58
2023-05-10T23:46:58.156Z,10.45
2023-05-10T23:49:26.502Z,10.37
2023-05-10T23:51:55.082Z,10.47
2023-05-10T23:54:23.392Z,10.34
2023-05-10T23:56:51.758Z,10.45
2023-05-10T23:59:21.764Z,10.37
